createdAt,value
2022-10-01T00:01:18.349Z,98215.59
2022-10-01T00:03:45.880Z,98207.41
2022-10-01T00:06:17.765Z,98211.25
2022-10-01T00:08:49.519Z,98213.50
2022-10-01T00:11:25.105Z,98209.69
2022-10-01T00:13:53.828Z,98210.28
2022-10-01T00:16:25.604Z,98219.38
2022-10-01T00:18:55.863Z,98209.75
2022-10-01T00:21:26.481Z,98217.19
2022-10-01T00:23:57.732Z,98225.69
2022-10-01T00:26:27.880Z,98228.22
2022-10-01T00:28:59.156Z,98218.38
2022-10-01T00:31:26.610Z,98215.66
2022-10-01T00:33:58.407Z,98229.06
2022-10-01T00:36:27.090Z,98226.03
2022-10-01T00:38:54.513Z,98233.47
2022-10-01T00:41:21.254Z,98233.47
2022-10-01T00:43:53.736Z,98227.97
2022-10-01T00:46:27.571Z,98221.44
2022-10-01T00:49:07.699Z,98234.91
2022-10-01T00:51:48.116Z,98240.69
2022-10-01T00:54:19.054Z,98247.78
2022-10-01T00:56:47.117Z,98249.44
2022-10-01T00:59:16.427Z,98266.69
2022-10-01T01:01:43.220Z,98262.63
2022-10-01T01:04:18.533Z,98264.00
2022-10-01T01:06:55.876Z,98274.16
2022-10-01T01:09:25.894Z,98279.94
2022-10-01T01:12:21.950Z,98284.06
2022-10-01T01:15:18.546Z,98289.56
2022-10-01T01:18:06.166Z,98290.63
2022-10-01T01:21:00.179Z,98285.72
2022-10-01T01:23:49.305Z,98294.75
2022-10-01T01:26:29.823Z,98300.28
2022-10-01T01:29:13.596Z,98299.22
2022-10-01T01:31:46.434Z,98306.97
2022-10-01T01:34:21.888Z,98316.59
2022-10-01T01:36:55.951Z,98318.50
2022-10-01T01:39:26.889Z,98316.06
2022-10-01T01:41:59.907Z,98322.09
2022-10-01T01:44:30.850Z,98320.47
2022-10-01T01:47:02.167Z,98318.25
2022-10-01T01:49:30.086Z,98320.19
2022-10-01T01:52:09.828Z,98307.03
2022-10-01T01:54:36.926Z,98296.38
2022-10-01T01:57:04.647Z,98303.53
2022-10-01T01:59:34.043Z,98303.84
2022-10-01T02:02:01.508Z,98297.00
2022-10-01T02:04:41.185Z,98303.06
2022-10-01T02:07:26.656Z,98310.22
2022-10-01T02:10:18.351Z,98311.31
2022-10-01T02:13:04.126Z,98309.97
2022-10-01T02:15:46.849Z,98309.16
2022-10-01T02:18:31.604Z,98312.44
2022-10-01T02:21:10.086Z,98318.50
2022-10-01T02:23:52.130Z,98320.13
2022-10-01T02:26:23.114Z,98328.88
2022-10-01T02:28:54.182Z,98325.63
2022-10-01T02:31:24.092Z,98335.47
2022-10-01T02:33:53.433Z,98339.31
2022-10-01T02:36:22.324Z,98336.31
2022-10-01T02:38:50.900Z,98336.31
2022-10-01T02:41:24.318Z,98330.03
2022-10-01T02:43:59.053Z,98336.31
2022-10-01T02:46:39.445Z,98332.47
2022-10-01T02:49:07.187Z,98332.22
2022-10-01T02:51:37.329Z,98345.06
2022-10-01T02:54:19.772Z,98364.53
2022-10-01T02:57:05.998Z,98362.06
2022-10-01T02:59:33.122Z,98364.81
2022-10-01T03:01:59.995Z,98370.03
2022-10-01T03:04:26.912Z,98366.22
2022-10-01T03:06:54.124Z,98371.19
2022-10-01T03:09:21.212Z,98376.91
2022-10-01T03:11:47.924Z,98379.94
2022-10-01T03:14:14.692Z,98374.47
2022-10-01T03:16:41.445Z,98373.66
2022-10-01T03:19:11.175Z,98373.91
2022-10-01T03:21:38.094Z,98371.19
2022-10-01T03:24:05.370Z,98378.06
2022-10-01T03:26:34.172Z,98383.25
2022-10-01T03:29:03.231Z,98383.53
2022-10-01T03:31:31.215Z,98383.28
2022-10-01T03:34:00.484Z,98395.03
2022-10-01T03:36:27.967Z,98397.78
2022-10-01T03:38:55.278Z,98402.13
2022-10-01T03:41:22.303Z,98398.31
2022-10-01T03:43:50.305Z,98413.69
2022-10-01T03:46:17.884Z,98409.84
2022-10-01T03:48:45.882Z,98407.13
2022-10-01T03:51:15.599Z,98420.25
2022-10-01T03:53:46.246Z,98425.50
2022-10-01T03:56:14.812Z,98432.03
2022-10-01T03:58:41.558Z,98441.94
2022-10-01T04:01:08.494Z,98446.03
2022-10-01T04:03:35.177Z,98449.63
2022-10-01T04:06:02.030Z,98455.09
2022-10-01T04:08:30.258Z,98454.84
2022-10-01T04:10:57.091Z,98459.50
2022-10-01T04:13:23.855Z,98466.06
2022-10-01T04:15:50.798Z,98464.44
2022-10-01T04:18:19.441Z,98466.91
2022-10-01T04:20:46.204Z,98477.59
2022-10-01T04:23:13.181Z,98474.56
2022-10-01T04:25:40.337Z,98478.69
2022-10-01T04:28:11.242Z,98478.94
2022-10-01T04:30:40.886Z,98497.25
2022-10-01T04:33:09.866Z,98493.16
2022-10-01T04:35:36.859Z,98490.97
2022-10-01T04:38:07.532Z,98497.00
2022-10-01T04:40:36.578Z,98500.00
2022-10-01T04:43:04.874Z,98514.78
2022-10-01T04:45:32.388Z,98512.59
2022-10-01T04:47:59.641Z,98516.16
2022-10-01T04:50:27.116Z,98533.41
2022-10-01T04:52:54.667Z,98531.47
2022-10-01T04:55:23.021Z,98535.59
2022-10-01T04:57:51.939Z,98536.66
2022-10-01T05:00:22.425Z,98541.88
2022-10-01T05:02:51.275Z,98528.19
2022-10-01T05:05:21.666Z,98543.25
2022-10-01T05:07:48.959Z,98546.78
2022-10-01T05:10:18.808Z,98553.34
2022-10-01T05:12:46.447Z,98559.63
2022-10-01T05:15:14.681Z,98559.88
2022-10-01T05:17:41.437Z,98572.22
2022-10-01T05:20:11.211Z,98570.03
2022-10-01T05:22:38.311Z,98576.03
2022-10-01T05:25:07.279Z,98588.63
2022-10-01T05:27:38.086Z,98580.41
2022-10-01T05:30:08.460Z,98577.69
2022-10-01T05:32:35.833Z,98580.69
2022-10-01T05:35:03.504Z,98580.97
2022-10-01T05:37:30.591Z,98586.44
2022-10-01T05:39:57.609Z,98578.25
2022-10-01T05:42:25.133Z,98591.91
2022-10-01T05:44:52.222Z,98580.13
2022-10-01T05:47:20.814Z,98577.16
2022-10-01T05:49:47.848Z,98594.38
2022-10-01T05:52:16.572Z,98585.88
2022-10-01T05:54:43.364Z,98591.38
2022-10-01T05:57:10.729Z,98588.63
2022-10-01T05:59:37.475Z,98596.00
2022-10-01T06:02:05.089Z,98597.94
2022-10-01T06:04:31.903Z,98601.75
2022-10-01T06:06:59.104Z,98606.13
2022-10-01T06:09:26.095Z,98611.06
2022-10-01T06:11:53.306Z,98615.97
2022-10-01T06:14:21.153Z,98619.25
2022-10-01T06:16:48.277Z,98634.56
2022-10-01T06:19:17.549Z,98631.03
2022-10-01T06:21:49.377Z,98639.22
2022-10-01T06:24:16.225Z,98653.44
2022-10-01T06:26:45.980Z,98651.22
2022-10-01T06:29:13.710Z,98669.53
2022-10-01T06:32:48.855Z,98666.22
2022-10-01T06:35:16.108Z,98665.09
2022-10-01T06:37:49.491Z,98679.81
2022-10-01T06:40:16.791Z,98679.00
2022-10-01T06:42:53.753Z,98672.53
2022-10-01T06:45:23.551Z,98688.06
2022-10-01T06:47:58.158Z,98688.34
2022-10-01T06:50:25.520Z,98692.19
2022-10-01T06:52:53.303Z,98693.03
2022-10-01T06:55:25.391Z,98702.84
2022-10-01T06:58:06.551Z,98689.75
2022-10-01T07:00:35.290Z,98699.06
2022-10-01T07:03:04.531Z,98708.94
2022-10-01T07:05:31.459Z,98719.63
2022-10-01T07:07:58.132Z,98714.44
2022-10-01T07:10:25.496Z,98719.41
2022-10-01T07:12:52.184Z,98725.44
2022-10-01T07:15:22.808Z,98722.44
2022-10-01T07:17:51.001Z,98726.56
2022-10-01T07:20:20.198Z,98727.16
2022-10-01T07:22:48.443Z,98727.97
2022-10-01T07:25:15.577Z,98725.78
2022-10-01T07:27:42.278Z,98734.84
2022-10-01T07:30:09.370Z,98731.00
2022-10-01T07:32:36.714Z,98732.38
2022-10-01T07:35:05.296Z,98734.56
2022-10-01T07:37:32.125Z,98734.31
2022-10-01T07:40:08.951Z,98742.22
2022-10-01T07:45:44.892Z,98749.34
2022-10-01T07:48:40.967Z,98760.59
2022-10-01T07:51:17.375Z,98761.13
2022-10-01T07:54:02.014Z,98767.69
2022-10-01T07:56:47.258Z,98763.28
2022-10-01T07:59:36.789Z,98777.00
2022-10-01T08:02:22.177Z,98781.09
2022-10-01T08:05:09.971Z,98790.69
2022-10-01T08:10:26.293Z,98785.69
2022-10-01T08:12:59.995Z,98784.56
2022-10-01T08:15:27.327Z,98798.47
2022-10-01T08:17:55.328Z,98807.81
2022-10-01T08:20:22.062Z,98797.06
2022-10-01T08:22:49.141Z,98804.72
2022-10-01T08:25:17.791Z,98816.22
2022-10-01T08:27:48.495Z,98812.88
2022-10-01T08:30:18.156Z,98826.03
2022-10-01T08:33:00.281Z,98827.91
2022-10-01T08:35:36.134Z,98822.38
2022-10-01T08:38:05.163Z,98816.34
2022-10-01T08:40:41.352Z,98825.91
2022-10-01T08:43:17.476Z,98821.19
2022-10-01T08:45:51.592Z,98829.13
2022-10-01T08:48:56.900Z,98827.72
2022-10-01T08:51:32.967Z,98829.59
2022-10-01T08:54:21.752Z,98830.66
2022-10-01T08:56:48.601Z,98835.34
2022-10-01T08:59:35.261Z,98838.28
2022-10-01T09:02:02.172Z,98851.44
2022-10-01T09:04:31.039Z,98858.00
2022-10-01T09:07:13.452Z,98864.22
2022-10-01T09:09:50.081Z,98865.56
2022-10-01T09:12:38.450Z,98876.25
2022-10-01T09:15:38.513Z,98869.06
2022-10-01T09:18:22.491Z,98870.41
2022-10-01T09:20:54.936Z,98860.47
2022-10-01T09:23:29.520Z,98870.88
2022-10-01T09:26:00.007Z,98873.81
2022-10-01T09:28:33.497Z,98866.31
2022-10-01T09:31:16.614Z,98877.28
2022-10-01T09:33:54.479Z,98875.84
2022-10-01T09:36:30.219Z,98880.47
2022-10-01T09:39:33.496Z,98879.34
2022-10-01T09:42:00.370Z,98884.78
2022-10-01T09:44:30.279Z,98879.19
2022-10-01T09:46:56.935Z,98882.47
2022-10-01T09:49:35.072Z,98883.00
2022-10-01T09:52:06.320Z,98890.09
2022-10-01T09:54:43.286Z,98896.34
2022-10-01T09:57:13.220Z,98902.69
2022-10-01T09:59:57.266Z,98899.88
2022-10-01T10:02:44.586Z,98906.97
2022-10-01T10:05:18.418Z,98913.38
2022-10-01T10:07:52.466Z,98913.81
2022-10-01T10:10:26.057Z,98912.19
2022-10-01T10:12:59.188Z,98919.47
2022-10-01T10:15:26.436Z,98919.88
2022-10-01T10:17:54.509Z,98922.50
2022-10-01T10:20:38.224Z,98922.16
2022-10-01T10:23:19.577Z,98914.63
2022-10-01T10:26:03.413Z,98925.09
2022-10-01T10:28:43.810Z,98937.16
2022-10-01T10:31:16.606Z,98937.91
2022-10-01T10:34:01.474Z,98944.97
2022-10-01T10:36:36.197Z,98948.47
2022-10-01T10:39:06.375Z,98948.94
2022-10-01T10:41:34.603Z,98959.59
2022-10-01T10:44:04.991Z,98960.50
2022-10-01T10:46:38.601Z,98958.91
2022-10-01T10:49:16.319Z,98956.31
2022-10-01T10:51:51.412Z,98964.06
2022-10-01T10:54:28.558Z,98970.41
2022-10-01T11:00:20.223Z,98983.56
2022-10-01T11:03:00.889Z,98976.41
2022-10-01T11:05:32.124Z,98992.13
2022-10-01T11:08:06.790Z,98991.31
2022-10-01T11:10:45.733Z,98992.97
2022-10-01T11:13:34.347Z,98998.69
2022-10-01T11:16:28.047Z,99007.59
2022-10-01T11:19:13.407Z,99006.69
2022-10-01T11:22:05.558Z,99014.75
2022-10-01T11:24:46.176Z,99020.84
2022-10-01T11:27:16.804Z,99011.72
2022-10-01T11:29:58.363Z,99010.53
2022-10-01T11:32:44.477Z,99024.16
2022-10-01T11:35:23.388Z,99029.38
2022-10-01T11:37:57.940Z,99022.66
2022-10-01T11:40:32.507Z,99035.84
2022-10-01T11:43:12.268Z,99034.06
2022-10-01T11:45:47.344Z,99032.00
2022-10-01T11:48:24.592Z,99045.63
2022-10-01T11:50:56.253Z,99056.06
2022-10-01T11:53:46.534Z,99050.69
2022-10-01T11:57:02.048Z,99036.53
2022-10-01T11:59:53.504Z,99047.75
2022-10-01T12:02:45.316Z,99057.66
2022-10-01T12:05:29.166Z,99055.16
2022-10-01T12:08:30.108Z,99060.34
2022-10-01T12:11:06.719Z,99067.75
2022-10-01T12:13:40.277Z,99051.56
2022-10-01T12:16:28.482Z,99063.66
2022-10-01T12:19:21.591Z,99051.41
2022-10-01T12:22:10.628Z,99056.31
2022-10-01T12:24:46.069Z,99057.13
2022-10-01T12:27:29.422Z,99062.09
2022-10-01T12:30:03.257Z,99055.25
2022-10-01T12:33:07.497Z,99066.81
2022-10-01T12:35:58.014Z,99064.59
2022-10-01T12:38:48.974Z,99067.03
2022-10-01T12:41:43.782Z,99069.25
2022-10-01T12:44:22.469Z,99062.31
2022-10-01T12:46:59.485Z,99069.69
2022-10-01T12:49:45.461Z,99067.53
2022-10-01T12:58:54.090Z,99078.28
2022-10-01T13:04:47.350Z,99085.19
2022-10-01T13:07:49.108Z,99096.66
2022-10-01T13:10:25.723Z,99089.31
2022-10-01T13:13:19.093Z,99100.97
2022-10-01T13:15:49.725Z,99109.34
2022-10-01T13:18:35.938Z,99105.50
2022-10-01T13:21:32.722Z,99105.38
2022-10-01T13:24:16.943Z,99109.13
2022-10-01T13:26:57.919Z,99104.47
2022-10-01T13:29:45.211Z,99106.91
2022-10-01T13:32:34.002Z,99102.91
2022-10-01T13:35:21.404Z,99100.75
2022-10-01T13:37:48.200Z,99099.72
2022-10-01T13:40:23.007Z,99096.13
2022-10-01T13:42:52.107Z,99096.13
2022-10-01T13:45:31.393Z,99093.16
2022-10-01T13:48:15.263Z,99100.94
2022-10-01T13:51:04.439Z,99088.75
2022-10-01T13:53:38.375Z,99103.91
2022-10-01T13:56:05.531Z,99104.75
2022-10-01T13:58:44.119Z,99100.34
2022-10-01T14:01:23.553Z,99118.16
2022-10-01T14:03:53.695Z,99127.00
2022-10-01T14:06:36.025Z,99126.75
2022-10-01T14:09:15.267Z,99123.50
2022-10-01T14:12:04.566Z,99132.69
2022-10-01T14:14:55.449Z,99130.25
2022-10-01T14:17:25.843Z,99128.03
2022-10-01T14:19:53.092Z,99132.78
2022-10-01T14:22:50.304Z,99135.69
2022-10-01T14:25:23.327Z,99131.50
2022-10-01T14:28:34.843Z,99142.41
2022-10-01T14:31:24.679Z,99141.28
2022-10-01T14:34:12.781Z,99149.31
2022-10-01T14:36:45.354Z,99146.66
2022-10-01T14:39:22.463Z,99143.34
2022-10-01T14:41:51.716Z,99146.72
2022-10-01T14:44:27.553Z,99144.25
2022-10-01T14:46:56.646Z,99147.19
2022-10-01T14:49:26.802Z,99141.88
2022-10-01T14:52:26.043Z,99152.56
2022-10-01T14:55:02.732Z,99154.13
2022-10-01T14:57:39.252Z,99158.63
2022-10-01T15:00:15.909Z,99154.03
2022-10-01T15:02:51.929Z,99160.09
2022-10-01T15:05:33.149Z,99158.38
2022-10-01T15:08:28.472Z,99168.84
2022-10-01T15:10:59.251Z,99179.16
2022-10-01T15:13:35.427Z,99181.03
2022-10-01T15:16:03.113Z,99189.84
2022-10-01T15:18:31.818Z,99176.50
2022-10-01T15:21:05.562Z,99186.16
2022-10-01T15:23:36.851Z,99187.41
2022-10-01T15:26:09.381Z,99193.53
2022-10-01T15:28:36.954Z,99181.72
2022-10-01T15:31:06.999Z,99194.22
2022-10-01T15:33:43.315Z,99195.13
2022-10-01T15:36:18.565Z,99192.34
2022-10-01T15:38:46.848Z,99192.13
2022-10-01T15:41:33.364Z,99194.38
2022-10-01T15:44:05.673Z,99202.38
2022-10-01T15:46:35.162Z,99207.22
2022-10-01T15:49:20.065Z,99204.47
2022-10-01T15:52:20.226Z,99201.34
2022-10-01T15:54:48.570Z,99201.94
2022-10-01T16:00:02.608Z,99197.25
2022-10-01T16:02:31.714Z,99211.75
2022-10-01T16:05:09.118Z,99213.41
2022-10-01T16:07:36.565Z,99220.06
2022-10-01T16:10:16.121Z,99213.84
2022-10-01T16:12:42.908Z,99226.91
2022-10-01T16:15:28.209Z,99234.31
2022-10-01T16:18:00.785Z,99225.03
2022-10-01T16:20:45.633Z,99231.84
2022-10-01T16:23:34.229Z,99229.91
2022-10-01T16:26:01.891Z,99230.50
2022-10-01T16:28:36.656Z,99238.56
2022-10-01T16:31:06.232Z,99243.56
2022-10-01T16:33:37.279Z,99239.69
2022-10-01T16:38:51.464Z,99246.69
2022-10-01T16:41:27.048Z,99251.44
2022-10-01T16:43:57.093Z,99250.13
2022-10-01T16:46:23.855Z,99253.00
2022-10-01T16:48:54.797Z,99264.09
2022-10-01T16:51:22.038Z,99264.69
2022-10-01T16:53:50.030Z,99267.75
2022-10-01T16:56:17.540Z,99268.88
2022-10-01T16:58:54.515Z,99274.97
2022-10-01T17:01:23.320Z,99274.47
2022-10-01T17:03:51.368Z,99284.38
2022-10-01T17:06:18.112Z,99280.56
2022-10-01T17:08:44.946Z,99287.78
2022-10-01T17:11:12.705Z,99291.16
2022-10-01T17:13:39.670Z,99298.03
2022-10-01T17:16:06.607Z,99297.78
2022-10-01T17:18:33.719Z,99299.47
2022-10-01T17:21:04.439Z,99296.78
2022-10-01T17:23:31.148Z,99294.38
2022-10-01T17:25:57.770Z,99302.19
2022-10-01T17:28:24.646Z,99302.25
2022-10-01T17:30:51.404Z,99300.41
2022-10-01T17:33:20.429Z,99308.47
2022-10-01T17:35:52.051Z,99308.78
2022-10-01T17:38:19.637Z,99309.63
2022-10-01T17:40:46.824Z,99317.09
2022-10-01T17:43:15.969Z,99322.97
2022-10-01T17:45:43.459Z,99329.91
2022-10-01T17:48:10.489Z,99329.94
2022-10-01T17:50:43.764Z,99340.19
2022-10-01T17:53:11.867Z,99344.31
2022-10-01T17:55:41.321Z,99349.56
2022-10-01T18:00:49.068Z,99351.59
2022-10-01T18:03:18.248Z,99352.75
2022-10-01T18:05:45.415Z,99350.00
2022-10-01T18:08:12.785Z,99352.44
2022-10-01T18:10:39.727Z,99357.97
2022-10-01T18:13:06.487Z,99356.06
2022-10-01T18:15:33.592Z,99358.53
2022-10-01T18:20:46.905Z,99358.28
2022-10-01T18:23:14.024Z,99362.16
2022-10-01T18:25:40.651Z,99374.84
2022-10-01T18:28:07.489Z,99369.09
2022-10-01T18:30:34.176Z,99372.41
2022-10-01T18:33:02.651Z,99380.94
2022-10-01T18:35:34.806Z,99392.78
2022-10-01T18:38:25.913Z,99393.59
2022-10-01T18:41:00.004Z,99397.44
2022-10-01T18:43:27.107Z,99409.03
2022-10-01T18:46:23.047Z,99406.28
2022-10-01T18:49:14.734Z,99406.81
2022-10-01T18:52:05.628Z,99410.69
2022-10-01T18:54:49.684Z,99419.75
2022-10-01T18:57:38.099Z,99434.34
2022-10-01T19:00:18.409Z,99433.81
2022-10-01T19:02:56.743Z,99437.13
2022-10-01T19:05:49.786Z,99443.44
2022-10-01T19:08:38.308Z,99435.47
2022-10-01T19:11:20.803Z,99450.63
2022-10-01T19:14:22.420Z,99453.13
2022-10-01T19:17:06.662Z,99453.66
2022-10-01T19:20:11.627Z,99458.63
2022-10-01T19:23:15.825Z,99450.09
2022-10-01T19:25:55.572Z,99455.88
2022-10-01T19:28:41.154Z,99460.28
2022-10-01T19:31:36.934Z,99471.28
2022-10-01T19:34:16.940Z,99467.97
2022-10-01T19:36:52.247Z,99471.00
2022-10-01T19:39:31.189Z,99480.09
2022-10-01T19:42:03.643Z,99486.41
2022-10-01T19:44:54.385Z,99484.50
2022-10-01T19:47:45.935Z,99497.72
2022-10-01T19:50:29.314Z,99497.44
2022-10-01T19:52:58.434Z,99500.72
2022-10-01T19:55:26.648Z,99496.31
2022-10-01T19:57:53.467Z,99499.63
2022-10-01T20:00:23.128Z,99494.38
2022-10-01T20:03:07.137Z,99503.75
2022-10-01T20:05:52.986Z,99498.00
2022-10-01T20:08:33.845Z,99501.56
2022-10-01T20:11:03.321Z,99508.19
2022-10-01T20:13:40.116Z,99500.47
2022-10-01T20:16:15.197Z,99515.31
2022-10-01T20:19:14.149Z,99510.38
2022-10-01T20:21:43.954Z,99513.16
2022-10-01T20:24:52.193Z,99517.25
2022-10-01T20:27:40.461Z,99517.81
2022-10-01T20:30:21.486Z,99523.34
2022-10-01T20:33:13.929Z,99527.16
2022-10-01T20:36:19.224Z,99543.13
2022-10-01T20:38:54.331Z,99550.03
2022-10-01T20:41:23.590Z,99553.34
2022-10-01T20:43:55.625Z,99548.94
2022-10-01T20:46:35.918Z,99559.94
2022-10-01T20:49:11.076Z,99567.91
2022-10-01T20:51:46.996Z,99561.59
2022-10-01T20:54:23.181Z,99564.88
2022-10-01T20:57:21.435Z,99567.09
2022-10-01T20:59:55.486Z,99569.03
2022-10-01T21:02:31.229Z,99558.00
2022-10-01T21:05:08.522Z,99563.22
2022-10-01T21:08:00.745Z,99573.19
2022-10-01T21:10:40.440Z,99572.34
2022-10-01T21:13:17.470Z,99574.53
2022-10-01T21:15:59.407Z,99572.88
2022-10-01T21:18:44.462Z,99577.56
2022-10-01T21:21:29.585Z,99588.59
2022-10-01T21:24:33.944Z,99593.81
2022-10-01T21:27:24.041Z,99596.84
2022-10-01T21:30:17.685Z,99604.53
2022-10-01T21:33:19.836Z,99599.56
2022-10-01T21:36:15.979Z,99605.34
2022-10-01T21:38:56.234Z,99606.44
2022-10-01T21:41:34.996Z,99607.81
2022-10-01T21:44:11.421Z,99605.03
2022-10-01T21:46:55.431Z,99605.56
2022-10-01T21:49:35.627Z,99606.38
2022-10-01T21:52:10.907Z,99609.94
2022-10-01T21:54:50.737Z,99616.78
2022-10-01T21:57:36.190Z,99620.91
2022-10-01T22:00:16.552Z,99623.88
2022-10-01T22:03:27.052Z,99631.84
2022-10-01T22:06:03.518Z,99627.69
2022-10-01T22:08:45.528Z,99626.00
2022-10-01T22:11:35.213Z,99627.91
2022-10-01T22:14:04.999Z,99630.13
2022-10-01T22:16:50.213Z,99631.22
2022-10-01T22:19:23.231Z,99624.56
2022-10-01T22:21:56.378Z,99625.91
2022-10-01T22:24:31.085Z,99623.97
2022-10-01T22:27:10.425Z,99631.09
2022-10-01T22:29:44.088Z,99636.59
2022-10-01T22:32:13.851Z,99640.72
2022-10-01T22:34:49.457Z,99637.13
2022-10-01T22:37:28.018Z,99664.03
2022-10-01T22:40:03.512Z,99650.00
2022-10-01T22:42:38.341Z,99653.53
2022-10-01T22:45:17.016Z,99662.31
2022-10-01T22:47:50.683Z,99663.97
2022-10-01T22:50:42.020Z,99658.75
2022-10-01T22:53:19.562Z,99655.94
2022-10-01T22:55:54.644Z,99667.78
2022-10-01T22:58:30.359Z,99654.88
2022-10-01T23:01:06.195Z,99667.22
2022-10-01T23:04:04.371Z,99671.06
2022-10-01T23:06:43.398Z,99657.28
2022-10-01T23:09:18.615Z,99666.56
2022-10-01T23:12:17.625Z,99674.56
2022-10-01T23:15:12.603Z,99679.78
2022-10-01T23:18:10.681Z,99681.44
2022-10-01T23:20:40.660Z,99676.50
2022-10-01T23:23:33.202Z,99680.38
2022-10-01T23:26:35.848Z,99682.47
2022-10-01T23:29:08.736Z,99686.06
2022-10-01T23:31:55.193Z,99688.81
2022-10-01T23:34:35.455Z,99691.50
2022-10-01T23:37:02.047Z,99694.25
2022-10-01T23:40:07.713Z,99686.53
2022-10-01T23:42:43.770Z,99684.88
2022-10-01T23:45:22.923Z,99694.22
2022-10-01T23:47:58.830Z,99689.56
2022-10-01T23:50:48.170Z,99688.41
2022-10-01T23:53:20.389Z,99690.66
2022-10-01T23:56:16.020Z,99689.81
2022-10-01T23:58:54.683Z,99698.31
